sensor_id;sensor_type;location;lat;lon;timestamp;P1;durP1;ratioP1;P2;durP2;ratioP2
830;SDS011;397;50.564;7.272;2023-12-20T00:02:06;2.50;;;1.53;;
830;SDS011;397;50.564;7.272;2023-12-20T00:04:33;2.40;;;1.80;;
830;SDS011;397;50.564;7.272;2023-12-20T00:07:01;2.83;;;2.10;;
830;SDS011;397;50.564;7.272;2023-12-20T00:09:28;2.57;;;1.90;;
830;SDS011;397;50.564;7.272;2023-12-20T00:11:55;3.73;;;2.10;;
830;SDS011;397;50.564;7.272;2023-12-20T00:14:23;5.13;;;2.67;;
830;SDS011;397;50.564;7.272;2023-12-20T00:16:50;3.00;;;2.10;;
830;SDS011;397;50.564;7.272;2023-12-20T00:19:18;4.80;;;1.87;;
830;SDS011;397;50.564;7.272;2023-12-20T00:21:45;3.50;;;2.00;;
830;SDS011;397;50.564;7.272;2023-12-20T00:24:12;4.67;;;2.50;;
830;SDS011;397;50.564;7.272;2023-12-20T00:26:39;3.47;;;2.40;;
830;SDS011;397;50.564;7.272;2023-12-20T00:29:07;4.73;;;2.70;;
830;SDS011;397;50.564;7.272;2023-12-20T00:31:34;3.53;;;1.90;;
830;SDS011;397;50.564;7.272;2023-12-20T00:34:02;6.17;;;1.90;;
830;SDS011;397;50.564;7.272;2023-12-20T00:36:29;3.53;;;2.23;;
830;SDS011;397;50.564;7.272;2023-12-20T00:38:56;4.80;;;2.93;;
830;SDS011;397;50.564;7.272;2023-12-20T00:41:24;3.43;;;3.03;;
830;SDS011;397;50.564;7.272;2023-12-20T00:43:51;6.30;;;4.50;;
830;SDS011;397;50.564;7.272;2023-12-20T00:46:18;5.00;;;3.87;;
830;SDS011;397;50.564;7.272;2023-12-20T00:48:45;7.03;;;4.70;;
830;SDS011;397;50.564;7.272;2023-12-20T00:51:13;7.03;;;4.50;;
830;SDS011;397;50.564;7.272;2023-12-20T00:53:40;6.40;;;5.80;;
830;SDS011;397;50.564;7.272;2023-12-20T00:56:07;5.57;;;4.17;;
830;SDS011;397;50.564;7.272;2023-12-20T00:58:35;5.73;;;5.10;;
830;SDS011;397;50.564;7.272;2023-12-20T01:01:02;5.57;;;4.97;;
830;SDS011;397;50.564;7.272;2023-12-20T01:03:29;9.40;;;5.43;;
830;SDS011;397;50.564;7.272;2023-12-20T01:05:57;5.60;;;4.70;;
830;SDS011;397;50.564;7.272;2023-12-20T01:08:24;7.33;;;5.00;;
830;SDS011;397;50.564;7.272;2023-12-20T01:10:51;6.53;;;5.20;;
830;SDS011;397;50.564;7.272;2023-12-20T01:13:19;7.13;;;6.27;;
830;SDS011;397;50.564;7.272;2023-12-20T01:15:46;7.00;;;6.17;;
830;SDS011;397;50.564;7.272;2023-12-20T01:18:14;11.90;;;6.90;;
830;SDS011;397;50.564;7.272;2023-12-20T01:20:41;6.77;;;6.17;;
830;SDS011;397;50.564;7.272;2023-12-20T01:23:09;7.20;;;6.50;;
830;SDS011;397;50.564;7.272;2023-12-20T01:25:36;5.37;;;4.87;;
830;SDS011;397;50.564;7.272;2023-12-20T01:28:03;8.83;;;5.20;;
830;SDS011;397;50.564;7.272;2023-12-20T01:30:31;6.43;;;5.83;;
830;SDS011;397;50.564;7.272;2023-12-20T01:32:59;7.67;;;5.50;;
830;SDS011;397;50.564;7.272;2023-12-20T01:35:27;6.40;;;4.87;;
830;SDS011;397;50.564;7.272;2023-12-20T01:37:54;7.50;;;6.80;;
830;SDS011;397;50.564;7.272;2023-12-20T01:40:23;9.73;;;5.43;;
830;SDS011;397;50.564;7.272;2023-12-20T01:43:06;5.80;;;4.80;;
830;SDS011;397;50.564;7.272;2023-12-20T01:45:31;6.80;;;5.43;;
830;SDS011;397;50.564;7.272;2023-12-20T01:47:58;6.30;;;4.20;;
830;SDS011;397;50.564;7.272;2023-12-20T01:50:26;5.63;;;4.40;;
830;SDS011;397;50.564;7.272;2023-12-20T01:52:55;6.70;;;5.33;;
830;SDS011;397;50.564;7.272;2023-12-20T01:55:25;6.50;;;4.80;;
830;SDS011;397;50.564;7.272;2023-12-20T01:57:53;6.03;;;4.90;;
830;SDS011;397;50.564;7.272;2023-12-20T02:00:20;7.10;;;5.37;;
830;SDS011;397;50.564;7.272;2023-12-20T02:02:50;6.97;;;6.00;;
830;SDS011;397;50.564;7.272;2023-12-20T02:05:18;5.63;;;5.00;;
830;SDS011;397;50.564;7.272;2023-12-20T02:07:45;7.23;;;5.00;;
830;SDS011;397;50.564;7.272;2023-12-20T02:10:13;5.50;;;4.53;;
830;SDS011;397;50.564;7.272;2023-12-20T02:12:40;8.23;;;5.00;;
830;SDS011;397;50.564;7.272;2023-12-20T02:15:08;6.07;;;4.13;;
830;SDS011;397;50.564;7.272;2023-12-20T02:17:35;6.20;;;4.80;;
830;SDS011;397;50.564;7.272;2023-12-20T02:20:03;7.67;;;4.70;;
830;SDS011;397;50.564;7.272;2023-12-20T02:22:32;7.07;;;5.43;;
830;SDS011;397;50.564;7.272;2023-12-20T02:24:59;8.37;;;5.57;;
830;SDS011;397;50.564;7.272;2023-12-20T02:27:27;6.60;;;5.50;;
830;SDS011;397;50.564;7.272;2023-12-20T02:29:54;8.87;;;6.50;;
830;SDS011;397;50.564;7.272;2023-12-20T02:32:22;12.80;;;8.30;;
830;SDS011;397;50.564;7.272;2023-12-20T02:34:51;10.27;;;9.00;;
830;SDS011;397;50.564;7.272;2023-12-20T02:37:19;13.00;;;11.23;;
830;SDS011;397;50.564;7.272;2023-12-20T02:39:46;16.40;;;12.60;;
830;SDS011;397;50.564;7.272;2023-12-20T02:42:13;20.53;;;13.53;;
830;SDS011;397;50.564;7.272;2023-12-20T02:44:41;18.40;;;12.40;;
830;SDS011;397;50.564;7.272;2023-12-20T02:47:08;22.10;;;10.80;;
830;SDS011;397;50.564;7.272;2023-12-20T02:49:35;15.10;;;9.10;;
830;SDS011;397;50.564;7.272;2023-12-20T02:52:03;14.17;;;9.00;;
830;SDS011;397;50.564;7.272;2023-12-20T02:54:30;12.90;;;6.87;;
830;SDS011;397;50.564;7.272;2023-12-20T02:56:57;11.77;;;5.83;;
830;SDS011;397;50.564;7.272;2023-12-20T02:59:25;22.17;;;6.80;;
830;SDS011;397;50.564;7.272;2023-12-20T03:01:52;11.43;;;5.20;;
830;SDS011;397;50.564;7.272;2023-12-20T03:04:19;17.60;;;6.07;;
830;SDS011;397;50.564;7.272;2023-12-20T03:06:47;7.60;;;5.10;;
830;SDS011;397;50.564;7.272;2023-12-20T03:09:14;16.83;;;6.70;;
830;SDS011;397;50.564;7.272;2023-12-20T03:11:41;8.37;;;4.80;;
830;SDS011;397;50.564;7.272;2023-12-20T03:14:09;18.67;;;4.67;;
830;SDS011;397;50.564;7.272;2023-12-20T03:16:36;8.33;;;4.47;;
830;SDS011;397;50.564;7.272;2023-12-20T03:19:03;15.83;;;5.30;;
830;SDS011;397;50.564;7.272;2023-12-20T03:21:30;10.33;;;5.40;;
830;SDS011;397;50.564;7.272;2023-12-20T03:23:58;9.00;;;4.97;;
830;SDS011;397;50.564;7.272;2023-12-20T03:26:25;14.20;;;5.43;;
830;SDS011;397;50.564;7.272;2023-12-20T03:28:52;6.17;;;3.83;;
830;SDS011;397;50.564;7.272;2023-12-20T03:31:20;6.85;;;4.40;;
830;SDS011;397;50.564;7.272;2023-12-20T03:33:48;10.40;;;3.80;;
830;SDS011;397;50.564;7.272;2023-12-20T03:36:16;9.97;;;5.47;;
830;SDS011;397;50.564;7.272;2023-12-20T03:38:44;13.00;;;4.23;;
830;SDS011;397;50.564;7.272;2023-12-20T03:41:11;8.03;;;4.70;;
830;SDS011;397;50.564;7.272;2023-12-20T03:43:38;12.80;;;4.43;;
830;SDS011;397;50.564;7.272;2023-12-20T03:46:07;9.97;;;4.70;;
830;SDS011;397;50.564;7.272;2023-12-20T03:48:35;6.57;;;3.87;;
830;SDS011;397;50.564;7.272;2023-12-20T03:51:02;13.00;;;3.87;;
830;SDS011;397;50.564;7.272;2023-12-20T03:53:29;14.73;;;3.83;;
830;SDS011;397;50.564;7.272;2023-12-20T03:55:57;8.57;;;4.73;;
830;SDS011;397;50.564;7.272;2023-12-20T03:58:24;6.97;;;3.10;;
830;SDS011;397;50.564;7.272;2023-12-20T04:00:51;8.03;;;3.80;;
830;SDS011;397;50.564;7.272;2023-12-20T04:03:19;8.37;;;3.77;;
830;SDS011;397;50.564;7.272;2023-12-20T04:05:46;6.90;;;3.00;;
830;SDS011;397;50.564;7.272;2023-12-20T04:08:13;9.03;;;2.97;;
830;SDS011;397;50.564;7.272;2023-12-20T04:10:41;6.57;;;3.23;;
830;SDS011;397;50.564;7.272;2023-12-20T04:13:08;13.73;;;3.57;;
830;SDS011;397;50.564;7.272;2023-12-20T04:15:35;12.90;;;3.17;;
830;SDS011;397;50.564;7.272;2023-12-20T04:18:03;13.43;;;4.00;;
830;SDS011;397;50.564;7.272;2023-12-20T04:20:30;7.97;;;3.23;;
830;SDS011;397;50.564;7.272;2023-12-20T04:22:57;9.47;;;3.20;;
830;SDS011;397;50.564;7.272;2023-12-20T04:25:24;8.80;;;3.00;;
830;SDS011;397;50.564;7.272;2023-12-20T04:27:52;5.50;;;1.93;;
830;SDS011;397;50.564;7.272;2023-12-20T04:30:19;7.20;;;2.87;;
830;SDS011;397;50.564;7.272;2023-12-20T04:32:46;4.40;;;3.07;;
830;SDS011;397;50.564;7.272;2023-12-20T04:35:14;5.00;;;2.70;;
830;SDS011;397;50.564;7.272;2023-12-20T04:37:41;7.73;;;3.00;;
830;SDS011;397;50.564;7.272;2023-12-20T04:40:08;9.30;;;2.43;;
830;SDS011;397;50.564;7.272;2023-12-20T04:42:36;10.13;;;2.80;;
830;SDS011;397;50.564;7.272;2023-12-20T04:45:03;11.57;;;2.67;;
830;SDS011;397;50.564;7.272;2023-12-20T04:47:31;10.70;;;2.90;;
830;SDS011;397;50.564;7.272;2023-12-20T04:49:58;4.53;;;2.30;;
830;SDS011;397;50.564;7.272;2023-12-20T04:52:25;9.07;;;3.20;;
830;SDS011;397;50.564;7.272;2023-12-20T04:54:53;5.80;;;2.90;;
830;SDS011;397;50.564;7.272;2023-12-20T04:57:20;13.43;;;2.73;;
830;SDS011;397;50.564;7.272;2023-12-20T04:59:47;5.10;;;3.03;;
830;SDS011;397;50.564;7.272;2023-12-20T05:02:15;7.10;;;3.33;;
830;SDS011;397;50.564;7.272;2023-12-20T05:04:42;13.03;;;3.43;;
830;SDS011;397;50.564;7.272;2023-12-20T05:07:10;6.30;;;3.47;;
830;SDS011;397;50.564;7.272;2023-12-20T05:09:37;10.03;;;3.17;;
830;SDS011;397;50.564;7.272;2023-12-20T05:12:04;9.93;;;4.00;;
830;SDS011;397;50.564;7.272;2023-12-20T05:14:32;8.63;;;3.60;;
830;SDS011;397;50.564;7.272;2023-12-20T05:17:00;9.93;;;3.70;;
830;SDS011;397;50.564;7.272;2023-12-20T05:19:27;6.20;;;3.23;;
830;SDS011;397;50.564;7.272;2023-12-20T05:21:54;7.53;;;3.60;;
830;SDS011;397;50.564;7.272;2023-12-20T05:24:22;15.23;;;4.20;;
830;SDS011;397;50.564;7.272;2023-12-20T05:26:49;7.27;;;3.47;;
830;SDS011;397;50.564;7.272;2023-12-20T05:29:16;9.87;;;3.90;;
830;SDS011;397;50.564;7.272;2023-12-20T05:31:43;13.80;;;3.63;;
830;SDS011;397;50.564;7.272;2023-12-20T05:34:11;6.80;;;3.70;;
830;SDS011;397;50.564;7.272;2023-12-20T05:36:38;12.60;;;3.73;;
830;SDS011;397;50.564;7.272;2023-12-20T05:39:05;8.40;;;4.40;;
830;SDS011;397;50.564;7.272;2023-12-20T05:41:34;6.13;;;4.10;;
830;SDS011;397;50.564;7.272;2023-12-20T05:44:01;13.10;;;4.87;;
830;SDS011;397;50.564;7.272;2023-12-20T05:46:28;12.40;;;5.93;;
830;SDS011;397;50.564;7.272;2023-12-20T05:48:55;13.37;;;4.97;;
830;SDS011;397;50.564;7.272;2023-12-20T05:51:23;12.90;;;5.20;;
830;SDS011;397;50.564;7.272;2023-12-20T05:53:50;15.23;;;4.93;;
830;SDS011;397;50.564;7.272;2023-12-20T05:56:18;12.73;;;5.73;;
830;SDS011;397;50.564;7.272;2023-12-20T05:58:45;11.57;;;5.53;;
830;SDS011;397;50.564;7.272;2023-12-20T06:01:14;9.00;;;4.77;;
830;SDS011;397;50.564;7.272;2023-12-20T06:03:43;10.50;;;5.47;;
830;SDS011;397;50.564;7.272;2023-12-20T06:06:12;14.50;;;5.40;;
830;SDS011;397;50.564;7.272;2023-12-20T06:08:40;11.50;;;5.00;;
830;SDS011;397;50.564;7.272;2023-12-20T06:11:09;10.10;;;5.03;;
830;SDS011;397;50.564;7.272;2023-12-20T06:13:37;11.17;;;4.63;;
830;SDS011;397;50.564;7.272;2023-12-20T06:16:05;13.07;;;4.60;;
830;SDS011;397;50.564;7.272;2023-12-20T06:18:33;14.23;;;5.20;;
830;SDS011;397;50.564;7.272;2023-12-20T06:21:00;12.40;;;4.10;;
830;SDS011;397;50.564;7.272;2023-12-20T06:23:28;8.73;;;5.20;;
830;SDS011;397;50.564;7.272;2023-12-20T06:25:56;11.53;;;4.50;;
830;SDS011;397;50.564;7.272;2023-12-20T06:28:23;6.93;;;3.43;;
830;SDS011;397;50.564;7.272;2023-12-20T06:30:50;8.37;;;4.07;;
830;SDS011;397;50.564;7.272;2023-12-20T06:33:19;8.53;;;3.77;;
830;SDS011;397;50.564;7.272;2023-12-20T06:35:48;12.90;;;4.60;;
830;SDS011;397;50.564;7.272;2023-12-20T06:38:15;9.53;;;4.63;;
830;SDS011;397;50.564;7.272;2023-12-20T06:40:44;7.27;;;4.00;;
830;SDS011;397;50.564;7.272;2023-12-20T06:43:12;6.80;;;4.53;;
830;SDS011;397;50.564;7.272;2023-12-20T06:45:39;7.20;;;3.80;;
830;SDS011;397;50.564;7.272;2023-12-20T06:48:07;10.13;;;3.97;;
830;SDS011;397;50.564;7.272;2023-12-20T06:50:34;7.43;;;3.63;;
830;SDS011;397;50.564;7.272;2023-12-20T06:53:03;8.40;;;3.43;;
830;SDS011;397;50.564;7.272;2023-12-20T06:55:33;12.40;;;3.90;;
830;SDS011;397;50.564;7.272;2023-12-20T06:58:01;8.30;;;3.50;;
830;SDS011;397;50.564;7.272;2023-12-20T07:00:28;8.07;;;3.33;;
830;SDS011;397;50.564;7.272;2023-12-20T07:02:56;6.47;;;3.80;;
830;SDS011;397;50.564;7.272;2023-12-20T07:05:23;7.23;;;3.40;;
830;SDS011;397;50.564;7.272;2023-12-20T07:07:50;8.30;;;4.20;;
830;SDS011;397;50.564;7.272;2023-12-20T07:10:18;7.70;;;3.50;;
830;SDS011;397;50.564;7.272;2023-12-20T07:12:45;5.77;;;2.90;;
830;SDS011;397;50.564;7.272;2023-12-20T07:15:12;5.47;;;3.30;;
830;SDS011;397;50.564;7.272;2023-12-20T07:17:39;12.47;;;4.27;;
830;SDS011;397;50.564;7.272;2023-12-20T07:20:07;8.90;;;3.10;;
830;SDS011;397;50.564;7.272;2023-12-20T07:22:36;11.43;;;3.90;;
830;SDS011;397;50.564;7.272;2023-12-20T07:25:04;7.27;;;3.17;;
830;SDS011;397;50.564;7.272;2023-12-20T07:27:31;7.13;;;4.03;;
830;SDS011;397;50.564;7.272;2023-12-20T07:29:59;5.43;;;3.50;;
830;SDS011;397;50.564;7.272;2023-12-20T07:32:26;15.07;;;4.67;;
830;SDS011;397;50.564;7.272;2023-12-20T07:34:53;8.90;;;3.60;;
830;SDS011;397;50.564;7.272;2023-12-20T07:37:21;10.13;;;4.00;;
830;SDS011;397;50.564;7.272;2023-12-20T07:39:48;17.53;;;5.30;;
830;SDS011;397;50.564;7.272;2023-12-20T07:42:15;13.23;;;4.63;;
830;SDS011;397;50.564;7.272;2023-12-20T07:44:42;10.70;;;3.90;;
830;SDS011;397;50.564;7.272;2023-12-20T07:47:10;7.10;;;4.57;;
830;SDS011;397;50.564;7.272;2023-12-20T07:49:38;14.00;;;4.90;;
830;SDS011;397;50.564;7.272;2023-12-20T07:52:06;7.77;;;4.23;;
830;SDS011;397;50.564;7.272;2023-12-20T07:54:34;9.50;;;3.93;;
830;SDS011;397;50.564;7.272;2023-12-20T07:57:01;13.60;;;5.93;;
830;SDS011;397;50.564;7.272;2023-12-20T07:59:29;8.83;;;4.20;;
830;SDS011;397;50.564;7.272;2023-12-20T08:01:56;9.50;;;4.40;;
830;SDS011;397;50.564;7.272;2023-12-20T08:04:23;11.13;;;6.23;;
830;SDS011;397;50.564;7.272;2023-12-20T08:06:50;13.03;;;4.50;;
830;SDS011;397;50.564;7.272;2023-12-20T08:09:17;10.20;;;3.70;;
830;SDS011;397;50.564;7.272;2023-12-20T08:11:46;10.40;;;4.13;;
830;SDS011;397;50.564;7.272;2023-12-20T08:14:13;9.03;;;4.47;;
830;SDS011;397;50.564;7.272;2023-12-20T08:16:41;9.03;;;6.20;;
830;SDS011;397;50.564;7.272;2023-12-20T08:19:08;9.93;;;4.70;;
830;SDS011;397;50.564;7.272;2023-12-20T08:21:35;9.80;;;6.10;;
830;SDS011;397;50.564;7.272;2023-12-20T08:24:03;9.50;;;5.20;;
830;SDS011;397;50.564;7.272;2023-12-20T08:26:30;10.87;;;4.03;;
830;SDS011;397;50.564;7.272;2023-12-20T08:28:57;10.80;;;5.10;;
830;SDS011;397;50.564;7.272;2023-12-20T08:31:24;9.20;;;3.93;;
830;SDS011;397;50.564;7.272;2023-12-20T08:33:52;9.43;;;4.13;;
830;SDS011;397;50.564;7.272;2023-12-20T08:36:21;11.63;;;4.50;;
830;SDS011;397;50.564;7.272;2023-12-20T08:38:49;11.73;;;4.23;;
830;SDS011;397;50.564;7.272;2023-12-20T08:41:17;11.87;;;4.00;;
830;SDS011;397;50.564;7.272;2023-12-20T08:43:44;13.97;;;4.70;;
830;SDS011;397;50.564;7.272;2023-12-20T08:46:11;6.60;;;3.40;;
830;SDS011;397;50.564;7.272;2023-12-20T08:48:40;12.13;;;4.97;;
830;SDS011;397;50.564;7.272;2023-12-20T08:51:07;8.67;;;3.80;;
830;SDS011;397;50.564;7.272;2023-12-20T08:53:34;13.23;;;3.70;;
830;SDS011;397;50.564;7.272;2023-12-20T08:56:02;7.67;;;3.40;;
830;SDS011;397;50.564;7.272;2023-12-20T08:58:29;8.23;;;3.43;;
830;SDS011;397;50.564;7.272;2023-12-20T09:00:56;11.30;;;3.60;;
830;SDS011;397;50.564;7.272;2023-12-20T09:03:24;8.03;;;3.00;;
830;SDS011;397;50.564;7.272;2023-12-20T09:05:51;10.23;;;6.13;;
830;SDS011;397;50.564;7.272;2023-12-20T09:08:18;13.20;;;3.00;;
830;SDS011;397;50.564;7.272;2023-12-20T09:10:45;8.20;;;3.37;;
830;SDS011;397;50.564;7.272;2023-12-20T09:13:12;7.33;;;3.37;;
830;SDS011;397;50.564;7.272;2023-12-20T09:15:40;13.30;;;3.70;;
830;SDS011;397;50.564;7.272;2023-12-20T09:18:07;12.70;;;3.53;;
830;SDS011;397;50.564;7.272;2023-12-20T09:20:34;6.43;;;3.07;;
830;SDS011;397;50.564;7.272;2023-12-20T09:23:02;9.60;;;3.20;;
830;SDS011;397;50.564;7.272;2023-12-20T09:25:29;13.50;;;4.07;;
830;SDS011;397;50.564;7.272;2023-12-20T09:27:56;9.47;;;2.70;;
830;SDS011;397;50.564;7.272;2023-12-20T09:30:23;13.90;;;3.17;;
830;SDS011;397;50.564;7.272;2023-12-20T09:32:51;14.80;;;3.57;;
830;SDS011;397;50.564;7.272;2023-12-20T09:35:18;14.50;;;2.90;;
830;SDS011;397;50.564;7.272;2023-12-20T09:37:45;11.33;;;3.00;;
830;SDS011;397;50.564;7.272;2023-12-20T09:40:13;8.20;;;3.30;;
830;SDS011;397;50.564;7.272;2023-12-20T09:42:47;8.87;;;2.90;;
830;SDS011;397;50.564;7.272;2023-12-20T09:45:12;9.10;;;3.63;;
830;SDS011;397;50.564;7.272;2023-12-20T09:47:41;7.37;;;2.87;;
830;SDS011;397;50.564;7.272;2023-12-20T09:50:09;8.10;;;3.20;;
830;SDS011;397;50.564;7.272;2023-12-20T09:52:36;14.00;;;3.37;;
830;SDS011;397;50.564;7.272;2023-12-20T09:55:05;10.47;;;3.23;;
830;SDS011;397;50.564;7.272;2023-12-20T09:57:34;7.00;;;1.93;;
830;SDS011;397;50.564;7.272;2023-12-20T10:00:01;12.93;;;3.57;;
830;SDS011;397;50.564;7.272;2023-12-20T10:02:29;8.70;;;3.10;;
830;SDS011;397;50.564;7.272;2023-12-20T10:04:58;10.43;;;3.40;;
830;SDS011;397;50.564;7.272;2023-12-20T10:07:26;8.13;;;2.63;;
830;SDS011;397;50.564;7.272;2023-12-20T10:09:54;9.63;;;2.43;;
830;SDS011;397;50.564;7.272;2023-12-20T10:12:22;5.17;;;2.63;;
830;SDS011;397;50.564;7.272;2023-12-20T10:14:50;14.27;;;3.10;;
830;SDS011;397;50.564;7.272;2023-12-20T10:17:17;11.03;;;2.60;;
830;SDS011;397;50.564;7.272;2023-12-20T10:19:44;8.67;;;2.67;;
830;SDS011;397;50.564;7.272;2023-12-20T10:22:12;7.80;;;2.73;;
830;SDS011;397;50.564;7.272;2023-12-20T10:24:39;7.67;;;2.60;;
830;SDS011;397;50.564;7.272;2023-12-20T10:27:08;6.83;;;2.77;;
830;SDS011;397;50.564;7.272;2023-12-20T10:29:35;10.10;;;2.87;;
830;SDS011;397;50.564;7.272;2023-12-20T10:34:53;4.60;;;2.50;;
830;SDS011;397;50.564;7.272;2023-12-20T10:37:21;10.20;;;2.60;;
830;SDS011;397;50.564;7.272;2023-12-20T10:39:49;9.30;;;3.00;;
830;SDS011;397;50.564;7.272;2023-12-20T10:42:20;10.20;;;2.70;;
830;SDS011;397;50.564;7.272;2023-12-20T10:44:51;13.50;;;3.13;;
830;SDS011;397;50.564;7.272;2023-12-20T10:47:20;7.97;;;2.70;;
830;SDS011;397;50.564;7.272;2023-12-20T10:49:47;7.60;;;2.90;;
830;SDS011;397;50.564;7.272;2023-12-20T10:52:15;4.67;;;2.33;;
830;SDS011;397;50.564;7.272;2023-12-20T10:54:44;5.70;;;3.07;;
830;SDS011;397;50.564;7.272;2023-12-20T10:57:12;7.40;;;2.67;;
830;SDS011;397;50.564;7.272;2023-12-20T10:59:39;12.00;;;3.63;;
830;SDS011;397;50.564;7.272;2023-12-20T11:02:07;7.83;;;3.23;;
830;SDS011;397;50.564;7.272;2023-12-20T11:07:52;6.07;;;2.27;;
830;SDS011;397;50.564;7.272;2023-12-20T11:09:38;6.57;;;2.60;;
830;SDS011;397;50.564;7.272;2023-12-20T11:12:09;8.57;;;3.30;;
830;SDS011;397;50.564;7.272;2023-12-20T11:14:48;6.20;;;3.20;;
830;SDS011;397;50.564;7.272;2023-12-20T11:17:16;8.20;;;2.93;;
830;SDS011;397;50.564;7.272;2023-12-20T11:22:22;10.60;;;4.10;;
830;SDS011;397;50.564;7.272;2023-12-20T11:24:50;8.10;;;3.23;;
830;SDS011;397;50.564;7.272;2023-12-20T11:27:18;7.40;;;3.03;;
830;SDS011;397;50.564;7.272;2023-12-20T11:29:52;8.23;;;3.17;;
830;SDS011;397;50.564;7.272;2023-12-20T11:35:00;11.07;;;3.23;;
830;SDS011;397;50.564;7.272;2023-12-20T11:37:30;7.13;;;3.67;;
830;SDS011;397;50.564;7.272;2023-12-20T11:40:06;12.70;;;4.20;;
830;SDS011;397;50.564;7.272;2023-12-20T11:42:33;8.13;;;3.27;;
830;SDS011;397;50.564;7.272;2023-12-20T11:44:59;7.97;;;3.10;;
830;SDS011;397;50.564;7.272;2023-12-20T11:47:26;6.93;;;3.40;;
830;SDS011;397;50.564;7.272;2023-12-20T11:49:53;8.47;;;3.33;;
830;SDS011;397;50.564;7.272;2023-12-20T11:52:22;7.03;;;3.03;;
830;SDS011;397;50.564;7.272;2023-12-20T11:54:49;10.10;;;2.93;;
830;SDS011;397;50.564;7.272;2023-12-20T11:57:17;11.33;;;3.27;;
830;SDS011;397;50.564;7.272;2023-12-20T11:59:44;8.20;;;3.50;;
830;SDS011;397;50.564;7.272;2023-12-20T12:02:12;9.20;;;3.13;;
830;SDS011;397;50.564;7.272;2023-12-20T12:04:42;10.70;;;3.17;;
830;SDS011;397;50.564;7.272;2023-12-20T12:07:10;10.13;;;3.50;;
830;SDS011;397;50.564;7.272;2023-12-20T12:09:37;8.03;;;3.60;;
830;SDS011;397;50.564;7.272;2023-12-20T12:12:04;6.97;;;4.33;;
830;SDS011;397;50.564;7.272;2023-12-20T12:14:32;7.77;;;3.90;;
830;SDS011;397;50.564;7.272;2023-12-20T12:16:59;5.43;;;3.67;;
830;SDS011;397;50.564;7.272;2023-12-20T12:19:26;5.77;;;2.80;;
830;SDS011;397;50.564;7.272;2023-12-20T12:22:04;9.77;;;3.37;;
830;SDS011;397;50.564;7.272;2023-12-20T12:24:33;11.00;;;3.23;;
830;SDS011;397;50.564;7.272;2023-12-20T12:27:00;12.07;;;4.60;;
830;SDS011;397;50.564;7.272;2023-12-20T12:29:28;5.87;;;3.50;;
830;SDS011;397;50.564;7.272;2023-12-20T12:31:55;12.20;;;4.43;;
830;SDS011;397;50.564;7.272;2023-12-20T12:34:22;13.27;;;4.17;;
830;SDS011;397;50.564;7.272;2023-12-20T12:36:50;6.33;;;4.43;;
830;SDS011;397;50.564;7.272;2023-12-20T12:39:17;8.07;;;3.80;;
830;SDS011;397;50.564;7.272;2023-12-20T12:41:45;9.73;;;3.50;;
830;SDS011;397;50.564;7.272;2023-12-20T12:44:12;9.13;;;3.23;;
830;SDS011;397;50.564;7.272;2023-12-20T12:46:39;10.23;;;3.70;;
830;SDS011;397;50.564;7.272;2023-12-20T12:49:07;10.10;;;3.73;;
830;SDS011;397;50.564;7.272;2023-12-20T12:51:34;5.20;;;3.60;;
830;SDS011;397;50.564;7.272;2023-12-20T12:54:01;9.70;;;3.53;;
830;SDS011;397;50.564;7.272;2023-12-20T12:56:29;4.57;;;3.67;;
830;SDS011;397;50.564;7.272;2023-12-20T12:58:57;8.20;;;3.77;;
830;SDS011;397;50.564;7.272;2023-12-20T13:01:24;16.63;;;5.00;;
830;SDS011;397;50.564;7.272;2023-12-20T13:03:51;6.27;;;3.83;;
830;SDS011;397;50.564;7.272;2023-12-20T13:06:19;10.47;;;3.70;;
830;SDS011;397;50.564;7.272;2023-12-20T13:08:46;10.97;;;4.80;;
830;SDS011;397;50.564;7.272;2023-12-20T13:11:13;6.60;;;2.97;;
830;SDS011;397;50.564;7.272;2023-12-20T13:13:40;9.10;;;3.50;;
830;SDS011;397;50.564;7.272;2023-12-20T13:16:08;11.50;;;3.70;;
830;SDS011;397;50.564;7.272;2023-12-20T13:18:35;6.10;;;3.87;;
830;SDS011;397;50.564;7.272;2023-12-20T13:21:02;8.23;;;3.87;;
830;SDS011;397;50.564;7.272;2023-12-20T13:23:30;6.47;;;3.83;;
830;SDS011;397;50.564;7.272;2023-12-20T13:25:57;10.97;;;4.60;;
830;SDS011;397;50.564;7.272;2023-12-20T13:28:24;11.83;;;3.63;;
830;SDS011;397;50.564;7.272;2023-12-20T13:30:51;10.37;;;3.97;;
830;SDS011;397;50.564;7.272;2023-12-20T13:33:19;5.70;;;3.20;;
830;SDS011;397;50.564;7.272;2023-12-20T13:35:46;11.73;;;3.50;;
830;SDS011;397;50.564;7.272;2023-12-20T13:38:13;5.53;;;3.93;;
830;SDS011;397;50.564;7.272;2023-12-20T13:40:40;11.30;;;3.90;;
830;SDS011;397;50.564;7.272;2023-12-20T13:43:08;12.70;;;3.70;;
830;SDS011;397;50.564;7.272;2023-12-20T13:45:37;9.50;;;3.43;;
830;SDS011;397;50.564;7.272;2023-12-20T13:48:04;5.60;;;2.70;;
830;SDS011;397;50.564;7.272;2023-12-20T13:50:32;6.60;;;2.70;;
830;SDS011;397;50.564;7.272;2023-12-20T13:52:59;5.30;;;2.80;;
830;SDS011;397;50.564;7.272;2023-12-20T13:55:27;5.87;;;2.67;;
830;SDS011;397;50.564;7.272;2023-12-20T13:57:54;5.60;;;2.70;;
830;SDS011;397;50.564;7.272;2023-12-20T14:00:26;9.80;;;2.90;;
830;SDS011;397;50.564;7.272;2023-12-20T14:02:50;5.33;;;2.87;;
830;SDS011;397;50.564;7.272;2023-12-20T14:05:18;6.87;;;2.83;;
830;SDS011;397;50.564;7.272;2023-12-20T14:07:45;7.17;;;2.30;;
830;SDS011;397;50.564;7.272;2023-12-20T14:10:13;5.53;;;2.40;;
830;SDS011;397;50.564;7.272;2023-12-20T14:12:40;6.00;;;2.33;;
830;SDS011;397;50.564;7.272;2023-12-20T14:15:07;8.10;;;3.00;;
830;SDS011;397;50.564;7.272;2023-12-20T14:17:37;3.53;;;2.13;;
830;SDS011;397;50.564;7.272;2023-12-20T14:20:05;4.73;;;2.13;;
830;SDS011;397;50.564;7.272;2023-12-20T14:22:33;4.10;;;1.40;;
830;SDS011;397;50.564;7.272;2023-12-20T14:25:00;2.90;;;1.67;;
830;SDS011;397;50.564;7.272;2023-12-20T14:27:28;4.23;;;1.70;;
830;SDS011;397;50.564;7.272;2023-12-20T14:29:55;6.03;;;2.50;;
830;SDS011;397;50.564;7.272;2023-12-20T14:32:23;2.83;;;1.70;;
830;SDS011;397;50.564;7.272;2023-12-20T14:34:52;3.97;;;1.97;;
830;SDS011;397;50.564;7.272;2023-12-20T14:37:21;4.60;;;2.10;;
830;SDS011;397;50.564;7.272;2023-12-20T14:39:48;6.30;;;1.63;;
830;SDS011;397;50.564;7.272;2023-12-20T14:42:15;5.50;;;1.70;;
830;SDS011;397;50.564;7.272;2023-12-20T14:44:43;7.53;;;2.20;;
830;SDS011;397;50.564;7.272;2023-12-20T14:47:10;5.13;;;2.10;;
830;SDS011;397;50.564;7.272;2023-12-20T14:49:37;6.77;;;2.23;;
830;SDS011;397;50.564;7.272;2023-12-20T14:52:05;5.20;;;2.10;;
830;SDS011;397;50.564;7.272;2023-12-20T14:54:32;3.00;;;1.30;;
830;SDS011;397;50.564;7.272;2023-12-20T14:56:59;2.50;;;1.70;;
830;SDS011;397;50.564;7.272;2023-12-20T14:59:27;2.83;;;1.80;;
830;SDS011;397;50.564;7.272;2023-12-20T15:01:54;4.27;;;1.73;;
830;SDS011;397;50.564;7.272;2023-12-20T15:04:21;2.80;;;1.03;;
830;SDS011;397;50.564;7.272;2023-12-20T15:06:50;3.60;;;1.47;;
830;SDS011;397;50.564;7.272;2023-12-20T15:09:19;3.20;;;1.70;;
830;SDS011;397;50.564;7.272;2023-12-20T15:11:46;4.27;;;1.50;;
830;SDS011;397;50.564;7.272;2023-12-20T15:14:13;5.93;;;1.47;;
830;SDS011;397;50.564;7.272;2023-12-20T15:16:45;3.87;;;1.33;;
830;SDS011;397;50.564;7.272;2023-12-20T15:19:15;3.37;;;2.23;;
830;SDS011;397;50.564;7.272;2023-12-20T15:21:43;4.40;;;1.80;;
830;SDS011;397;50.564;7.272;2023-12-20T15:24:10;3.30;;;1.90;;
830;SDS011;397;50.564;7.272;2023-12-20T15:26:46;7.47;;;3.13;;
830;SDS011;397;50.564;7.272;2023-12-20T15:29:13;8.73;;;2.77;;
830;SDS011;397;50.564;7.272;2023-12-20T15:31:46;4.10;;;1.17;;
830;SDS011;397;50.564;7.272;2023-12-20T15:34:11;6.13;;;2.00;;
830;SDS011;397;50.564;7.272;2023-12-20T15:36:39;4.57;;;2.10;;
830;SDS011;397;50.564;7.272;2023-12-20T15:39:06;8.87;;;2.13;;
830;SDS011;397;50.564;7.272;2023-12-20T15:41:34;3.83;;;2.13;;
830;SDS011;397;50.564;7.272;2023-12-20T15:44:02;6.47;;;2.43;;
830;SDS011;397;50.564;7.272;2023-12-20T15:46:29;5.03;;;2.10;;
830;SDS011;397;50.564;7.272;2023-12-20T15:48:56;5.40;;;2.10;;
830;SDS011;397;50.564;7.272;2023-12-20T15:51:24;3.73;;;1.60;;
830;SDS011;397;50.564;7.272;2023-12-20T15:53:51;3.23;;;1.70;;